Time;durP1;ratioP1;P1;durP2;ratioP2;P2;SDS_P1;SDS_P2;PMS_P1;PMS_P2;Temp;Humidity;BMP_temperature;BMP_pressure;BME280_temperature;BME280_humidity;BME280_pressure;Samples;Min_cycle;Max_cycle;Signal;HPM_P1;HPM_P2
2022/02/13 00:00:17;;;;;;;17.45;9.45;;;5.60;99.90;;;;;;5095476;28;20039;-84
2022/02/13 00:02:44;;;;;;;18.13;9.88;;;5.50;99.90;;;;;;5096785;28;20024;-84
2022/02/13 00:05:10;;;;;;;14.95;9.80;;;5.50;99.90;;;;;;5096616;28;20032;-84
2022/02/13 00:07:36;;;;;;;15.27;9.38;;;5.50;99.90;;;;;;5095612;28;20508;-84
2022/02/13 00:10:12;;;;;;;14.48;8.88;;;5.50;99.90;;;;;;5095207;28;20373;-84
2022/02/13 00:12:38;;;;;;;14.75;9.35;;;5.50;99.90;;;;;;5095183;28;20016;-84
2022/02/13 00:15:06;;;;;;;16.50;9.60;;;5.50;99.90;;;;;;5095171;28;20383;-84
2022/02/13 00:17:31;;;;;;;15.38;9.60;;;5.50;99.90;;;;;;5096418;28;20531;-84
2022/02/13 00:19:58;;;;;;;12.85;8.57;;;5.50;99.90;;;;;;5095064;28;20055;-84
2022/02/13 00:22:25;;;;;;;15.80;9.13;;;5.50;99.90;;;;;;5095613;28;20081;-84
2022/02/13 00:24:51;;;;;;;16.95;8.52;;;5.50;99.90;;;;;;5094941;28;20398;-84
2022/02/13 00:27:16;;;;;;;13.15;8.10;;;5.50;99.90;;;;;;5094939;28;20020;-84
2022/02/13 00:29:42;;;;;;;17.52;8.30;;;5.50;99.90;;;;;;5094833;28;20024;-84
2022/02/13 00:32:09;;;;;;;12.00;7.90;;;5.40;99.90;;;;;;5094815;28;20077;-84
2022/02/13 00:34:35;;;;;;;13.35;7.70;;;5.40;99.90;;;;;;5096018;28;20016;-84
2022/02/13 00:37:01;;;;;;;12.15;7.25;;;5.50;99.90;;;;;;5094479;28;20035;-84
2022/02/13 00:39:27;;;;;;;12.55;7.88;;;5.50;99.90;;;;;;5094127;28;20021;-84
2022/02/13 00:41:54;;;;;;;11.45;7.75;;;5.40;99.90;;;;;;5094239;28;20024;-84
2022/02/13 00:44:20;;;;;;;12.52;7.55;;;5.40;99.90;;;;;;5094540;28;20157;-84
2022/02/13 00:46:46;;;;;;;14.32;7.97;;;5.40;99.90;;;;;;5094523;28;20055;-84
2022/02/13 00:49:12;;;;;;;13.65;7.85;;;5.40;99.90;;;;;;5094465;28;20023;-84
2022/02/13 00:51:38;;;;;;;15.52;7.57;;;5.40;99.90;;;;;;5094462;28;20025;-84
2022/02/13 00:54:04;;;;;;;13.27;7.43;;;5.40;99.90;;;;;;5094392;28;20383;-84
2022/02/13 00:56:30;;;;;;;11.10;6.85;;;5.40;99.90;;;;;;5094317;28;20077;-84
2022/02/13 00:58:55;;;;;;;12.70;7.07;;;5.40;99.90;;;;;;5095569;28;20067;-84
2022/02/13 01:01:21;;;;;;;13.95;7.43;;;5.40;99.90;;;;;;5094230;28;20512;-84
2022/02/13 01:03:47;;;;;;;15.63;7.30;;;5.40;99.90;;;;;;5094260;28;20418;-83
2022/02/13 01:06:13;;;;;;;12.13;7.00;;;5.30;99.90;;;;;;5094108;28;20035;-84
2022/02/13 01:08:39;;;;;;;12.88;7.32;;;5.40;99.90;;;;;;5094119;28;20111;-84
2022/02/13 01:11:06;;;;;;;13.18;7.40;;;5.40;99.90;;;;;;5094019;28;20038;-83
2022/02/13 01:13:31;;;;;;;11.35;7.05;;;5.40;99.90;;;;;;5094018;28;20395;-84
2022/02/13 01:15:58;;;;;;;10.95;6.35;;;5.30;99.90;;;;;;5095261;28;20020;-83
2022/02/13 01:18:24;;;;;;;11.68;7.07;;;5.30;99.90;;;;;;5093881;28;20050;-84
2022/02/13 01:20:50;;;;;;;11.10;7.07;;;5.30;99.90;;;;;;5095234;28;20061;-84
2022/02/13 01:23:15;;;;;;;11.63;6.80;;;5.30;99.90;;;;;;5094073;28;20059;-84
2022/02/13 01:25:41;;;;;;;12.05;7.13;;;5.30;99.90;;;;;;5093756;28;20568;-84
2022/02/13 01:28:07;;;;;;;12.20;6.55;;;5.30;99.90;;;;;;5093757;28;20472;-84
2022/02/13 01:30:33;;;;;;;10.45;6.20;;;5.30;99.90;;;;;;5093609;28;20020;-84
2022/02/13 01:33:00;;;;;;;10.50;6.75;;;5.30;99.90;;;;;;5095010;28;20028;-84
2022/02/13 01:35:25;;;;;;;10.60;6.22;;;5.30;99.90;;;;;;5093661;28;20020;-83
2022/02/13 01:37:51;;;;;;;10.70;6.25;;;5.30;99.90;;;;;;5093322;28;20097;-84
2022/02/13 01:40:17;;;;;;;11.20;6.57;;;5.30;99.90;;;;;;5094890;28;20036;-84
2022/02/13 01:42:43;;;;;;;10.88;5.95;;;5.30;99.90;;;;;;5093530;28;20028;-84
2022/02/13 01:45:09;;;;;;;9.48;5.82;;;5.30;99.90;;;;;;5093428;28;20020;-83
2022/02/13 01:47:35;;;;;;;9.88;5.97;;;5.30;99.90;;;;;;5093483;28;20026;-83
2022/02/13 01:50:02;;;;;;;10.88;6.35;;;5.30;99.90;;;;;;5094519;28;20107;-83
2022/02/13 01:52:28;;;;;;;10.57;6.00;;;5.30;99.90;;;;;;5093185;28;20115;-83
2022/02/13 01:54:54;;;;;;;12.15;6.07;;;5.20;99.90;;;;;;5093441;28;20551;-83
2022/02/13 01:57:21;;;;;;;10.70;6.00;;;5.20;99.90;;;;;;5094791;28;20016;-82
2022/02/13 01:59:46;;;;;;;10.10;5.80;;;5.20;99.90;;;;;;5093297;28;20027;-83
2022/02/13 02:02:12;;;;;;;10.10;5.63;;;5.20;99.90;;;;;;5093159;28;20383;-83
2022/02/13 02:04:39;;;;;;;10.63;5.60;;;5.20;99.90;;;;;;5093011;28;20024;-84
2022/02/13 02:07:05;;;;;;;10.00;5.40;;;5.20;99.90;;;;;;5093188;28;20032;-83
2022/02/13 02:09:30;;;;;;;7.93;5.32;;;5.20;99.90;;;;;;5094475;28;20034;-83
2022/02/13 02:11:56;;;;;;;8.68;5.35;;;5.20;99.90;;;;;;5093266;28;20412;-83
2022/02/13 02:14:22;;;;;;;11.52;5.80;;;5.20;99.90;;;;;;5093341;28;20024;-83
2022/02/13 02:16:48;;;;;;;9.32;5.78;;;5.20;99.90;;;;;;5093167;28;20047;-83
2022/02/13 02:19:13;;;;;;;10.93;5.72;;;5.20;99.90;;;;;;5093235;28;20094;-83
2022/02/13 02:21:44;;;;;;;9.85;5.57;;;5.20;99.90;;;;;;5093079;28;20024;-83
2022/02/13 02:24:13;;;;;;;8.98;5.68;;;5.20;99.90;;;;;;5093077;28;20028;-83
2022/02/13 02:26:39;;;;;;;8.10;4.90;;;5.20;99.90;;;;;;5092922;28;20030;-83
2022/02/13 02:29:05;;;;;;;8.50;5.03;;;5.20;99.90;;;;;;5094234;28;20027;-83
2022/02/13 02:31:31;;;;;;;9.18;5.22;;;5.20;99.90;;;;;;5093130;28;20111;-83
2022/02/13 02:33:57;;;;;;;7.75;5.00;;;5.20;99.90;;;;;;5094263;28;20030;-83
2022/02/13 02:36:22;;;;;;;10.93;4.88;;;5.20;99.90;;;;;;5092578;28;20023;-83
2022/02/13 02:38:48;;;;;;;8.10;5.68;;;5.20;99.90;;;;;;5092634;28;20099;-83
2022/02/13 02:41:15;;;;;;;8.73;4.88;;;5.20;99.90;;;;;;5092904;28;20082;-83
2022/02/13 02:43:42;;;;;;;9.18;4.90;;;5.20;99.90;;;;;;5092783;28;20070;-83
2022/02/13 02:46:08;;;;;;;9.48;5.55;;;5.10;99.90;;;;;;5092848;28;20407;-83
2022/02/13 02:48:34;;;;;;;9.40;4.70;;;5.20;99.90;;;;;;5092717;28;20031;-83
2022/02/13 02:51:01;;;;;;;8.55;5.05;;;5.10;99.90;;;;;;5092577;28;20032;-83
2022/02/13 02:53:28;;;;;;;7.22;4.53;;;5.10;99.90;;;;;;5092520;28;20055;-83
2022/02/13 02:55:54;;;;;;;8.75;5.15;;;5.10;99.90;;;;;;5094077;28;20016;-83
2022/02/13 02:58:20;;;;;;;13.75;4.97;;;5.10;99.90;;;;;;5092521;28;20396;-83
2022/02/13 03:00:46;;;;;;;8.23;5.35;;;5.10;99.90;;;;;;5092577;28;20103;-83
2022/02/13 03:03:11;;;;;;;9.00;4.97;;;5.10;99.90;;;;;;5091861;28;20058;-83
2022/02/13 03:05:37;;;;;;;10.73;5.38;;;5.10;99.90;;;;;;5092458;28;20501;-83
2022/02/13 03:08:03;;;;;;;9.90;5.05;;;5.10;99.90;;;;;;5093700;28;20063;-83
2022/02/13 03:10:29;;;;;;;9.65;4.63;;;5.10;99.90;;;;;;5092274;28;20020;-83
2022/02/13 03:12:54;;;;;;;7.97;4.68;;;5.10;99.90;;;;;;5092334;28;20024;-83
2022/02/13 03:15:20;;;;;;;9.15;4.95;;;5.10;99.90;;;;;;5092390;28;20024;-83
2022/02/13 03:17:46;;;;;;;10.15;5.50;;;5.10;99.90;;;;;;5092234;28;20020;-83
2022/02/13 03:20:12;;;;;;;9.02;5.20;;;5.10;99.90;;;;;;5092255;28;20032;-83
2022/02/13 03:22:37;;;;;;;9.73;5.05;;;5.10;99.90;;;;;;5092366;28;20028;-83
2022/02/13 03:25:03;;;;;;;8.90;4.82;;;5.10;99.90;;;;;;5093821;28;20464;-83
2022/02/13 03:27:29;;;;;;;8.57;5.05;;;5.00;99.90;;;;;;5093126;28;20056;-83
2022/02/13 03:29:55;;;;;;;9.27;5.07;;;5.00;99.90;;;;;;5093379;28;20404;-83
2022/02/13 03:32:21;;;;;;;9.80;5.13;;;5.10;99.90;;;;;;5092362;28;20107;-83
2022/02/13 03:34:47;;;;;;;9.60;5.05;;;5.00;99.90;;;;;;5092259;28;20112;-83
2022/02/13 03:37:14;;;;;;;10.55;4.70;;;5.10;99.90;;;;;;5092104;28;20027;-83
2022/02/13 03:39:40;;;;;;;8.55;4.53;;;5.10;99.90;;;;;;5091913;28;20028;-83
2022/02/13 03:42:07;;;;;;;9.27;4.65;;;5.00;99.90;;;;;;5092062;28;20035;-83
2022/02/13 03:44:33;;;;;;;9.85;4.85;;;5.00;99.90;;;;;;5093252;28;20116;-83
2022/02/13 03:46:59;;;;;;;7.40;4.25;;;5.00;99.90;;;;;;5092051;28;20111;-83
2022/02/13 03:49:25;;;;;;;10.13;5.05;;;5.00;99.90;;;;;;5092170;28;20105;-83
2022/02/13 03:51:51;;;;;;;8.90;4.38;;;5.00;99.90;;;;;;5092449;28;20032;-83
2022/02/13 03:54:17;;;;;;;8.20;4.50;;;5.00;99.90;;;;;;5092114;28;20077;-83
2022/02/13 03:56:42;;;;;;;7.50;4.47;;;5.00;99.90;;;;;;5092064;28;20090;-83
2022/02/13 03:59:08;;;;;;;9.85;4.85;;;5.00;99.90;;;;;;5092091;28;20016;-83
2022/02/13 04:01:34;;;;;;;6.75;4.18;;;5.00;99.90;;;;;;5092459;28;20110;-82
2022/02/13 04:03:59;;;;;;;10.48;4.55;;;5.00;99.90;;;;;;5092060;28;20543;-83
2022/02/13 04:06:25;;;;;;;7.80;4.25;;;5.00;99.90;;;;;;5091942;28;20051;-82
2022/02/13 04:08:51;;;;;;;10.82;4.53;;;5.00;99.90;;;;;;5091918;28;20484;-83
2022/02/13 04:11:16;;;;;;;8.30;4.30;;;5.00;99.90;;;;;;5092775;28;20027;-83
2022/02/13 04:13:42;;;;;;;8.55;4.82;;;5.00;99.90;;;;;;5092005;28;20551;-83
2022/02/13 04:16:08;;;;;;;7.38;4.60;;;5.00;99.90;;;;;;5093997;28;20476;-83
2022/02/13 04:18:34;;;;;;;6.63;4.15;;;5.00;99.90;;;;;;5096688;28;20065;-83
2022/02/13 04:20:59;;;;;;;6.82;4.15;;;4.90;99.90;;;;;;5096776;28;20485;-83
2022/02/13 04:23:29;;;;;;;5.90;4.03;;;4.90;99.90;;;;;;5095325;28;20585;-83
2022/02/13 04:25:55;;;;;;;8.65;4.43;;;4.90;99.90;;;;;;5096627;28;20024;-83
2022/02/13 04:28:21;;;;;;;7.13;4.45;;;5.00;99.90;;;;;;5095498;28;20391;-83
2022/02/13 04:30:47;;;;;;;8.88;4.60;;;5.00;99.90;;;;;;5096451;28;20024;-83
2022/02/13 04:33:12;;;;;;;6.90;3.97;;;5.00;99.90;;;;;;5096519;28;20024;-83
2022/02/13 04:35:40;;;;;;;7.68;4.25;;;5.00;99.90;;;;;;5095025;28;20020;-83
2022/02/13 04:38:06;;;;;;;8.95;4.57;;;4.90;99.90;;;;;;5095921;28;20047;-82
2022/02/13 04:40:32;;;;;;;7.30;4.50;;;4.90;99.90;;;;;;5095246;28;20383;-82
2022/02/13 04:42:57;;;;;;;9.88;4.50;;;4.90;99.90;;;;;;5094614;28;20481;-83
2022/02/13 04:45:23;;;;;;;7.22;4.13;;;4.90;99.90;;;;;;5096576;28;20357;-84
2022/02/13 04:47:49;;;;;;;7.30;4.43;;;4.90;99.90;;;;;;5095168;28;20020;-83
2022/02/13 04:50:21;;;;;;;9.30;4.70;;;4.90;99.90;;;;;;5094647;28;20437;-83
2022/02/13 04:52:47;;;;;;;8.00;4.22;;;4.90;99.90;;;;;;5096160;28;20024;-83
2022/02/13 04:55:13;;;;;;;6.90;4.45;;;4.90;99.90;;;;;;5094814;28;20457;-83
2022/02/13 04:57:39;;;;;;;6.53;4.38;;;4.90;99.90;;;;;;5094704;28;20103;-83
2022/02/13 05:00:06;;;;;;;9.73;4.65;;;4.90;99.90;;;;;;5094624;28;20085;-83
2022/02/13 05:02:32;;;;;;;8.38;4.30;;;4.80;99.90;;;;;;5077660;28;20123;-83
2022/02/13 05:04:58;;;;;;;9.07;4.45;;;4.90;99.90;;;;;;5094591;28;20094;-83
2022/02/13 05:07:24;;;;;;;7.78;4.07;;;4.80;99.90;;;;;;5094420;28;20031;-83
2022/02/13 05:09:49;;;;;;;8.15;4.20;;;4.80;99.90;;;;;;5094386;28;20111;-82
2022/02/13 05:12:15;;;;;;;7.60;4.38;;;4.80;99.90;;;;;;5094392;28;20383;-83
2022/02/13 05:14:41;;;;;;;7.10;4.20;;;4.80;99.90;;;;;;5094010;28;20027;-83
2022/02/13 05:17:07;;;;;;;6.22;4.13;;;4.80;99.90;;;;;;5095578;28;20552;-83
2022/02/13 05:19:33;;;;;;;7.07;4.85;;;4.80;99.90;;;;;;5094236;28;20480;-83
2022/02/13 05:21:59;;;;;;;9.68;4.22;;;4.80;99.90;;;;;;5094155;28;20074;-83
2022/02/13 05:24:25;;;;;;;7.95;4.60;;;4.80;99.90;;;;;;5093924;28;20024;-83
2022/02/13 05:26:51;;;;;;;7.03;4.03;;;4.80;99.90;;;;;;5093490;28;20024;-83
2022/02/13 05:29:17;;;;;;;7.05;4.05;;;4.80;99.90;;;;;;5094145;28;20024;-84
2022/02/13 05:31:43;;;;;;;8.93;4.47;;;4.80;99.90;;;;;;5093746;28;20031;-83
2022/02/13 05:34:14;;;;;;;8.32;4.78;;;4.80;99.90;;;;;;5093730;28;20021;-83
2022/02/13 05:36:40;;;;;;;9.05;4.40;;;4.80;99.90;;;;;;5093633;28;20112;-83
2022/02/13 05:39:06;;;;;;;7.95;4.35;;;4.70;99.90;;;;;;5093717;28;20491;-84
2022/02/13 05:41:31;;;;;;;7.63;4.63;;;4.80;99.90;;;;;;5094842;28;20028;-84
2022/02/13 05:43:57;;;;;;;9.20;4.70;;;4.80;99.90;;;;;;5093485;28;20498;-83
2022/02/13 05:46:25;;;;;;;9.85;4.57;;;4.70;99.90;;;;;;5093486;28;20589;-84
2022/02/13 05:48:51;;;;;;;6.90;4.20;;;4.70;99.90;;;;;;5094940;28;20108;-84
2022/02/13 05:51:17;;;;;;;6.53;4.40;;;4.70;99.90;;;;;;5093300;28;20499;-84
2022/02/13 05:53:43;;;;;;;6.05;3.92;;;4.70;99.90;;;;;;5093356;28;20044;-84
2022/02/13 05:56:09;;;;;;;6.00;4.10;;;4.70;99.90;;;;;;5093249;28;20020;-84
2022/02/13 05:58:39;;;;;;;9.80;4.50;;;4.70;99.90;;;;;;5094505;28;20180;-83
2022/02/13 06:01:04;;;;;;;9.85;4.68;;;4.70;99.90;;;;;;5094441;28;20073;-84
2022/02/13 06:03:30;;;;;;;8.38;4.65;;;4.70;99.90;;;;;;5093172;28;20468;-84
2022/02/13 06:05:56;;;;;;;8.02;4.53;;;4.70;99.90;;;;;;5093017;28;20111;-84
2022/02/13 06:08:22;;;;;;;8.23;4.38;;;4.70;99.90;;;;;;5093080;28;20032;-84
2022/02/13 06:10:48;;;;;;;9.07;4.90;;;4.70;99.90;;;;;;5092862;28;20028;-84
2022/02/13 06:13:14;;;;;;;8.70;4.53;;;4.70;99.90;;;;;;5092904;28;20107;-84
2022/02/13 06:15:40;;;;;;;8.48;4.65;;;4.70;99.90;;;;;;5092908;28;20027;-83
2022/02/13 06:18:05;;;;;;;7.60;4.70;;;4.60;99.90;;;;;;5094116;28;20016;-84
2022/02/13 06:20:31;;;;;;;9.85;4.93;;;4.70;99.90;;;;;;5092764;28;20031;-84
2022/02/13 06:22:57;;;;;;;7.93;4.82;;;4.60;99.90;;;;;;5092767;28;20028;-84
2022/02/13 06:25:22;;;;;;;11.52;4.78;;;4.70;99.90;;;;;;5092776;28;20028;-84
2022/02/13 06:27:48;;;;;;;8.48;4.53;;;4.60;99.90;;;;;;5094225;28;20055;-84
2022/02/13 06:30:14;;;;;;;8.48;3.97;;;4.60;99.90;;;;;;5092582;28;20062;-83
2022/02/13 06:32:39;;;;;;;7.55;4.05;;;4.60;99.90;;;;;;5092593;28;20428;-84
2022/02/13 06:35:06;;;;;;;7.68;4.63;;;4.60;99.90;;;;;;5092538;28;20028;-84
2022/02/13 06:37:31;;;;;;;8.43;4.63;;;4.60;99.90;;;;;;5092184;28;20055;-84
2022/02/13 06:39:58;;;;;;;9.55;4.40;;;4.60;99.90;;;;;;5092313;28;20475;-84
2022/02/13 06:42:24;;;;;;;9.23;4.88;;;4.60;99.90;;;;;;5092773;28;20063;-84
2022/02/13 06:44:50;;;;;;;8.13;4.85;;;4.60;99.90;;;;;;5092412;28;20176;-84
2022/02/13 06:47:16;;;;;;;9.90;5.20;;;4.60;99.90;;;;;;5092365;28;20073;-84
2022/02/13 06:49:42;;;;;;;6.97;4.60;;;4.60;99.90;;;;;;5092232;28;20039;-83
2022/02/13 06:52:07;;;;;;;7.13;4.68;;;4.60;99.90;;;;;;5092530;28;20380;-84
2022/02/13 06:54:33;;;;;;;7.13;4.60;;;4.60;99.90;;;;;;5092327;28;20111;-83
2022/02/13 06:56:58;;;;;;;9.95;4.88;;;4.60;99.90;;;;;;5093587;28;20017;-84
2022/02/13 06:59:24;;;;;;;7.78;4.30;;;4.60;99.90;;;;;;5092492;28;20493;-83
2022/02/13 07:01:50;;;;;;;6.95;4.55;;;4.60;99.90;;;;;;5092479;28;20046;-83
2022/02/13 07:04:16;;;;;;;8.73;5.40;;;4.60;99.90;;;;;;5093757;28;20127;-83
2022/02/13 07:06:41;;;;;;;8.02;4.60;;;4.60;99.90;;;;;;5092448;28;20032;-83
2022/02/13 07:09:07;;;;;;;9.35;4.70;;;4.60;99.90;;;;;;5092415;28;20024;-83
2022/02/13 07:11:34;;;;;;;8.85;4.75;;;4.70;99.90;;;;;;5092403;28;20533;-83
2022/02/13 07:13:59;;;;;;;12.23;5.18;;;4.80;99.90;;;;;;5092394;28;20503;-82
2022/02/13 07:16:26;;;;;;;8.50;4.22;;;5.00;99.90;;;;;;5092438;28;20020;-82
2022/02/13 07:18:52;;;;;;;7.32;4.88;;;5.20;99.90;;;;;;5092352;28;20028;-82
2022/02/13 07:21:17;;;;;;;7.28;4.97;;;5.40;99.90;;;;;;5093489;28;20107;-83
2022/02/13 07:23:44;;;;;;;10.10;5.50;;;5.60;99.90;;;;;;5091996;28;20081;-82
2022/02/13 07:26:10;;;;;;;6.82;4.80;;;5.80;99.90;;;;;;5092295;28;20075;-82
2022/02/13 07:31:20;;;;;;;8.23;4.72;;;6.30;99.90;;;;;;5093458;28;20057;-82
2022/02/13 07:33:46;;;;;;;9.63;5.50;;;6.60;99.90;;;;;;5092070;28;20538;-82
2022/02/13 07:36:12;;;;;;;7.38;4.47;;;6.80;99.90;;;;;;5093175;28;20023;-82
2022/02/13 07:38:38;;;;;;;8.13;5.25;;;7.00;99.90;;;;;;5091756;28;20392;-82
2022/02/13 07:41:03;;;;;;;8.95;5.28;;;7.30;99.90;;;;;;5093259;28;20444;-82
2022/02/13 07:43:29;;;;;;;7.68;5.15;;;7.60;99.90;;;;;;5091976;28;20024;-82
2022/02/13 07:45:55;;;;;;;9.77;5.20;;;7.80;99.90;;;;;;5092061;28;20024;-82
2022/02/13 07:48:20;;;;;;;8.63;5.40;;;8.10;99.90;;;;;;5092205;28;20025;-82
2022/02/13 07:50:46;;;;;;;9.20;5.28;;;8.40;99.90;;;;;;5095383;28;20028;-82
2022/02/13 07:53:12;;;;;;;8.93;5.18;;;8.70;99.90;;;;;;5095830;28;20024;-82
2022/02/13 07:55:38;;;;;;;8.82;5.15;;;9.00;99.90;;;;;;5097129;28;20040;-82
2022/02/13 07:58:04;;;;;;;7.80;4.68;;;9.40;99.90;;;;;;5095555;28;20039;-83
2022/02/13 08:00:29;;;;;;;11.32;5.53;;;9.70;99.90;;;;;;5095600;28;20024;-82
2022/02/13 08:02:55;;;;;;;10.90;5.22;;;10.00;99.90;;;;;;5095617;28;20055;-82
2022/02/13 08:05:21;;;;;;;8.20;5.22;;;10.30;99.90;;;;;;5096969;28;20024;-82
2022/02/13 08:07:48;;;;;;;7.30;4.95;;;10.50;99.90;;;;;;5095754;28;20624;-82
2022/02/13 08:10:18;;;;;;;11.10;5.57;;;10.60;99.90;;;;;;5095489;28;20028;-82
2022/02/13 08:12:44;;;;;;;9.63;5.03;;;10.70;99.90;;;;;;5095400;28;20020;-82
2022/02/13 08:15:10;;;;;;;9.32;5.07;;;10.70;99.90;;;;;;5095202;28;20024;-83
2022/02/13 08:17:36;;;;;;;7.78;4.93;;;10.70;99.90;;;;;;5095173;28;20020;-82
2022/02/13 08:20:05;;;;;;;8.90;4.93;;;10.70;99.90;;;;;;5096371;28;20024;-82
2022/02/13 08:22:35;;;;;;;6.45;4.95;;;10.90;99.90;;;;;;5096376;28;20475;-82
2022/02/13 08:25:02;;;;;;;8.35;4.90;;;11.00;99.90;;;;;;5095057;28;20085;-82
2022/02/13 08:27:27;;;;;;;7.05;4.88;;;10.60;99.90;;;;;;5094937;28;20024;-82
2022/02/13 08:29:53;;;;;;;8.68;4.88;;;10.00;99.90;;;;;;5094770;28;20081;-83
2022/02/13 08:32:19;;;;;;;7.95;4.90;;;9.70;99.90;;;;;;5094875;28;20024;-83
2022/02/13 08:34:45;;;;;;;9.43;4.97;;;9.70;99.90;;;;;;5094794;28;20020;-83
2022/02/13 08:37:12;;;;;;;6.85;4.93;;;9.70;99.90;;;;;;5094575;28;20644;-82
2022/02/13 08:39:39;;;;;;;10.63;5.55;;;9.70;99.90;;;;;;5096311;28;20456;-82
2022/02/13 08:42:05;;;;;;;8.38;5.15;;;9.60;99.90;;;;;;5094961;28;20027;-83
2022/02/13 08:44:30;;;;;;;6.93;4.55;;;9.50;99.90;;;;;;5095422;28;20507;-82
2022/02/13 08:46:56;;;;;;;6.05;4.28;;;9.40;99.90;;;;;;5094569;28;20047;-82
2022/02/13 08:49:22;;;;;;;7.50;4.80;;;9.30;99.90;;;;;;5094815;28;20016;-82
2022/02/13 08:51:47;;;;;;;8.02;4.90;;;9.30;99.90;;;;;;5094379;28;20090;-82
2022/02/13 08:54:13;;;;;;;9.07;5.00;;;9.30;99.90;;;;;;5094452;28;20035;-82
2022/02/13 08:56:39;;;;;;;9.05;4.40;;;9.20;99.90;;;;;;5094387;28;20145;-82
2022/02/13 08:59:04;;;;;;;6.43;4.55;;;9.20;99.90;;;;;;5094336;28;20472;-82
2022/02/13 09:01:30;;;;;;;6.65;4.57;;;9.20;99.90;;;;;;5093456;28;20024;-82
2022/02/13 09:03:56;;;;;;;8.93;4.90;;;9.10;99.90;;;;;;5094252;28;20388;-82
2022/02/13 09:06:21;;;;;;;10.23;5.72;;;9.10;99.90;;;;;;5094187;28;20032;-82
2022/02/13 09:08:47;;;;;;;7.05;4.35;;;9.10;99.90;;;;;;5094117;28;20028;-82
2022/02/13 09:11:13;;;;;;;9.77;5.30;;;9.00;99.90;;;;;;5094028;28;20494;-83
2022/02/13 09:13:39;;;;;;;10.43;4.78;;;9.00;99.90;;;;;;5094009;28;20434;-82
2022/02/13 09:16:05;;;;;;;10.00;5.07;;;8.90;99.90;;;;;;5095245;28;20103;-82
2022/02/13 09:18:30;;;;;;;10.77;4.90;;;8.90;99.90;;;;;;5093943;28;20115;-82
2022/02/13 09:20:56;;;;;;;8.77;5.10;;;8.90;99.90;;;;;;5093956;28;20028;-82
2022/02/13 09:23:22;;;;;;;8.48;4.50;;;8.90;99.90;;;;;;5093963;28;20031;-82
2022/02/13 09:25:48;;;;;;;7.63;4.88;;;8.80;99.90;;;;;;5093747;28;20395;-82
2022/02/13 09:28:16;;;;;;;11.80;5.25;;;8.80;99.90;;;;;;5093812;28;20376;-82
2022/02/13 09:30:46;;;;;;;7.80;5.05;;;8.80;99.90;;;;;;5093687;28;20110;-82
2022/02/13 09:33:12;;;;;;;7.97;5.10;;;8.80;99.90;;;;;;5093726;28;20145;-82
2022/02/13 09:35:38;;;;;;;13.55;5.10;;;8.80;99.90;;;;;;5093657;28;20024;-83
2022/02/13 09:38:04;;;;;;;9.85;4.82;;;8.70;99.90;;;;;;5093432;28;20040;-83
2022/02/13 09:40:33;;;;;;;11.68;5.03;;;8.80;99.90;;;;;;5093611;28;20041;-82
2022/02/13 09:43:03;;;;;;;9.00;4.93;;;8.70;99.90;;;;;;5093510;28;20418;-82
2022/02/13 09:45:31;;;;;;;7.60;4.70;;;8.70;99.90;;;;;;5094706;28;20387;-82
2022/02/13 09:48:00;;;;;;;10.93;5.35;;;8.80;99.90;;;;;;5093392;28;20028;-83
2022/02/13 09:50:28;;;;;;;10.88;5.40;;;8.70;99.90;;;;;;5093267;28;20032;-83
2022/02/13 09:52:56;;;;;;;7.68;4.80;;;8.60;99.90;;;;;;5094591;28;20443;-82
2022/02/13 09:55:26;;;;;;;8.13;5.07;;;8.70;99.90;;;;;;5093244;28;20024;-83
2022/02/13 09:58:04;;;;;;;10.93;4.95;;;8.60;99.90;;;;;;5094485;28;20444;-83
2022/02/13 10:00:50;;;;;;;8.23;4.78;;;8.70;99.90;;;;;;5093251;28;20024;-83
2022/02/13 10:03:28;;;;;;;8.80;5.43;;;8.70;99.90;;;;;;5094354;28;20031;-83
2022/02/13 10:05:56;;;;;;;7.13;5.05;;;8.70;99.90;;;;;;5092993;28;20071;-82
2022/02/13 10:08:36;;;;;;;12.95;5.25;;;8.70;99.90;;;;;;5093042;28;20062;-83
2022/02/13 10:11:33;;;;;;;10.98;5.20;;;8.70;99.90;;;;;;5094193;28;20483;-82
2022/02/13 10:14:01;;;;;;;12.93;5.13;;;8.70;99.90;;;;;;5092926;28;20111;-83
2022/02/13 10:16:36;;;;;;;8.65;5.20;;;8.70;99.90;;;;;;5092880;28;20433;-83
2022/02/13 10:19:15;;;;;;;12.00;5.40;;;8.70;99.90;;;;;;5094417;28;20021;-83
2022/02/13 10:21:41;;;;;;;10.80;5.00;;;8.70;99.90;;;;;;5092948;28;20028;-82
2022/02/13 10:24:16;;;;;;;8.27;5.05;;;8.70;99.90;;;;;;5092756;28;20026;-83
2022/02/13 10:26:43;;;;;;;8.02;5.20;;;8.70;99.90;;;;;;5092706;28;20055;-83
2022/02/13 10:29:10;;;;;;;8.98;5.25;;;8.70;99.90;;;;;;5092711;28;20031;-83
2022/02/13 10:31:37;;;;;;;10.93;5.32;;;8.70;99.90;;;;;;5092561;28;20567;-83
2022/02/13 10:34:03;;;;;;;11.35;5.07;;;8.70;99.90;;;;;;5092578;28;20030;-83
2022/02/13 10:36:29;;;;;;;8.20;4.85;;;8.70;99.90;;;;;;5092557;28;20436;-83
2022/02/13 10:38:55;;;;;;;10.57;5.05;;;8.70;99.90;;;;;;5093661;28;20040;-83
2022/02/13 10:41:28;;;;;;;8.88;5.28;;;8.70;99.90;;;;;;5092485;28;20085;-83
2022/02/13 10:44:05;;;;;;;9.73;5.03;;;8.70;99.90;;;;;;5092819;28;20044;-82
2022/02/13 10:46:34;;;;;;;10.68;5.70;;;8.70;99.90;;;;;;5092420;28;20024;-83
2022/02/13 10:49:00;;;;;;;11.10;5.65;;;8.80;99.90;;;;;;5092376;28;20023;-82
2022/02/13 10:51:26;;;;;;;7.43;4.85;;;8.80;99.90;;;;;;5092245;28;20020;-83
2022/02/13 10:53:53;;;;;;;9.95;5.28;;;8.80;99.90;;;;;;5092278;28;20024;-82
2022/02/13 10:56:20;;;;;;;9.88;5.13;;;8.80;99.90;;;;;;5092249;28;20016;-83
2022/02/13 10:58:46;;;;;;;13.20;5.82;;;8.80;99.90;;;;;;5093500;28;20020;-83
2022/02/13 11:01:15;;;;;;;9.15;5.03;;;8.80;99.90;;;;;;5092147;28;20441;-83
2022/02/13 11:03:44;;;;;;;9.18;4.88;;;8.80;99.90;;;;;;5092121;28;20035;-83
2022/02/13 11:06:10;;;;;;;10.27;5.20;;;8.80;99.90;;;;;;5093349;28;20028;-83
2022/02/13 11:08:51;;;;;;;14.93;6.95;;;8.80;99.90;;;;;;5092088;28;20115;-83
2022/02/13 11:11:17;;;;;;;11.70;6.07;;;8.80;99.90;;;;;;5093627;28;20016;-83
2022/02/13 11:13:44;;;;;;;9.32;5.75;;;8.80;99.90;;;;;;5092116;28;20508;-82
2022/02/13 11:16:29;;;;;;;11.23;5.93;;;8.90;99.90;;;;;;5092042;28;20016;-82
2022/02/13 11:19:01;;;;;;;;;;;8.90;99.90;;;;;;5092473;28;20522;-83
2022/02/13 11:21:29;;;;;;;11.02;5.45;;;8.90;99.90;;;;;;5092027;28;19990;-82
2022/02/13 11:23:57;;;;;;;10.07;5.85;;;8.90;99.90;;;;;;5092277;28;20412;-83
2022/02/13 11:26:43;;;;;;;11.02;5.85;;;8.90;99.90;;;;;;5097412;28;20094;-83
2022/02/13 11:29:12;;;;;;;9.52;5.82;;;8.90;99.90;;;;;;5096110;28;20122;-82
2022/02/13 11:31:57;;;;;;;13.48;5.65;;;9.00;99.90;;;;;;5095976;28;20055;-83
2022/02/13 11:34:43;;;;;;;10.88;5.88;;;9.00;99.90;;;;;;5097551;28;20043;-82
2022/02/13 11:37:19;;;;;;;11.18;5.72;;;9.00;99.90;;;;;;5095736;28;20039;-83
2022/02/13 11:39:46;;;;;;;10.10;5.18;;;9.00;99.90;;;;;;5095891;28;20032;-82
2022/02/13 11:42:18;;;;;;;11.45;5.22;;;9.00;99.90;;;;;;5095812;28;20028;-83
2022/02/13 11:44:50;;;;;;;9.20;5.40;;;9.00;99.90;;;;;;5096634;28;20368;-83
2022/02/13 11:47:20;;;;;;;8.25;5.18;;;9.00;99.90;;;;;;5097057;28;20024;-82
2022/02/13 11:50:14;;;;;;;9.68;5.10;;;9.00;99.90;;;;;;5095600;28;20024;-83
2022/02/13 11:53:01;;;;;;;11.77;5.50;;;9.00;99.90;;;;;;5095689;28;20111;-83
2022/02/13 11:55:31;;;;;;;10.82;5.50;;;9.00;99.90;;;;;;5095598;28;20047;-83
2022/02/13 11:58:11;;;;;;;12.45;5.70;;;9.10;99.90;;;;;;5095491;28;20031;-83
2022/02/13 12:00:39;;;;;;;14.75;5.88;;;9.00;99.90;;;;;;5095395;28;20070;-82
2022/02/13 12:03:13;;;;;;;17.88;6.38;;;9.10;99.90;;;;;;5095279;28;20024;-82
2022/02/13 12:05:38;;;;;;;;;;;9.10;99.90;;;;;;5095602;28;20020;-83
2022/02/13 12:08:04;;;;;;;11.80;5.78;;;9.10;99.90;;;;;;5096535;28;19904;-83
2022/02/13 12:10:45;;;;;;;10.50;5.50;;;9.10;99.90;;;;;;5095073;28;20028;-83
2022/02/13 12:13:16;;;;;;;10.23;5.30;;;9.10;99.90;;;;;;5095136;28;20024;-83
2022/02/13 12:15:52;;;;;;;10.27;5.38;;;9.10;99.90;;;;;;5095063;28;20024;-83
2022/02/13 12:18:18;;;;;;;9.32;4.70;;;9.10;99.90;;;;;;5094976;28;20024;-83
2022/02/13 12:20:44;;;;;;;13.32;5.43;;;9.10;99.90;;;;;;5094943;28;20027;-82
2022/02/13 12:23:19;;;;;;;9.85;4.93;;;9.10;99.90;;;;;;5096489;28;20468;-83
2022/02/13 12:25:46;;;;;;;10.57;4.82;;;9.20;99.90;;;;;;5095424;28;20471;-83
2022/02/13 12:28:13;;;;;;;12.43;5.13;;;9.20;99.90;;;;;;5094781;28;20031;-83
2022/02/13 12:30:50;;;;;;;9.40;4.22;;;9.20;99.90;;;;;;5094728;28;20031;-83
2022/02/13 12:33:18;;;;;;;10.07;4.70;;;9.20;99.90;;;;;;5094752;28;20024;-83
2022/02/13 12:35:45;;;;;;;10.50;4.82;;;9.20;99.90;;;;;;5094740;28;20020;-83
2022/02/13 12:38:12;;;;;;;13.80;4.35;;;9.20;99.90;;;;;;5095702;28;20036;-85
2022/02/13 12:40:39;;;;;;;10.75;4.57;;;9.20;99.90;;;;;;5094529;28;20031;-83
2022/02/13 12:43:17;;;;;;;9.30;4.40;;;9.20;99.90;;;;;;5094483;28;20031;-83
2022/02/13 12:45:45;;;;;;;10.07;4.28;;;9.20;99.90;;;;;;5095346;28;20028;-83
2022/02/13 12:48:15;;;;;;;11.45;4.07;;;9.20;99.90;;;;;;5094480;28;20412;-83
2022/02/13 12:50:46;;;;;;;8.77;4.10;;;9.30;99.90;;;;;;5094361;28;20021;-83
2022/02/13 12:53:14;;;;;;;10.68;4.07;;;9.20;99.90;;;;;;5094348;28;20051;-83
2022/02/13 12:55:42;;;;;;;9.35;3.95;;;9.30;99.90;;;;;;5095555;28;20031;-83